sensor_id;sensor_type;location;lat;lon;timestamp;P1;durP1;ratioP1;P2;durP2;ratioP2
28459;SDS011;32528;45.712;9.192;2023-12-20T00:01:25;17.75;;;12.02;;
28459;SDS011;32528;45.712;9.192;2023-12-20T00:03:26;23.70;;;10.18;;
28459;SDS011;32528;45.712;9.192;2023-12-20T00:05:26;18.67;;;10.60;;
28459;SDS011;32528;45.712;9.192;2023-12-20T00:07:27;17.17;;;8.65;;
28459;SDS011;32528;45.712;9.192;2023-12-20T00:09:28;18.05;;;9.57;;
28459;SDS011;32528;45.712;9.192;2023-12-20T00:11:29;17.13;;;8.90;;
28459;SDS011;32528;45.712;9.192;2023-12-20T00:13:29;16.52;;;8.80;;
28459;SDS011;32528;45.712;9.192;2023-12-20T00:15:30;16.25;;;9.10;;
28459;SDS011;32528;45.712;9.192;2023-12-20T00:17:31;18.00;;;8.65;;
28459;SDS011;32528;45.712;9.192;2023-12-20T00:19:31;15.95;;;8.48;;
28459;SDS011;32528;45.712;9.192;2023-12-20T00:21:32;12.88;;;6.80;;
28459;SDS011;32528;45.712;9.192;2023-12-20T00:23:33;17.05;;;8.43;;
28459;SDS011;32528;45.712;9.192;2023-12-20T00:25:34;19.05;;;9.98;;
28459;SDS011;32528;45.712;9.192;2023-12-20T00:27:35;26.02;;;15.18;;
28459;SDS011;32528;45.712;9.192;2023-12-20T00:29:36;20.50;;;10.05;;
28459;SDS011;32528;45.712;9.192;2023-12-20T00:31:37;16.70;;;9.20;;
28459;SDS011;32528;45.712;9.192;2023-12-20T00:33:37;19.23;;;12.02;;
28459;SDS011;32528;45.712;9.192;2023-12-20T00:35:40;34.88;;;15.93;;
28459;SDS011;32528;45.712;9.192;2023-12-20T00:37:40;14.50;;;7.95;;
28459;SDS011;32528;45.712;9.192;2023-12-20T00:39:42;11.48;;;7.20;;
28459;SDS011;32528;45.712;9.192;2023-12-20T00:41:43;18.23;;;8.35;;
28459;SDS011;32528;45.712;9.192;2023-12-20T00:43:44;18.55;;;7.72;;
28459;SDS011;32528;45.712;9.192;2023-12-20T00:45:44;23.67;;;12.50;;
28459;SDS011;32528;45.712;9.192;2023-12-20T00:47:45;21.35;;;11.32;;
28459;SDS011;32528;45.712;9.192;2023-12-20T00:51:47;11.18;;;6.78;;
28459;SDS011;32528;45.712;9.192;2023-12-20T00:53:49;15.25;;;9.10;;
28459;SDS011;32528;45.712;9.192;2023-12-20T00:55:50;17.52;;;10.52;;
28459;SDS011;32528;45.712;9.192;2023-12-20T00:59:53;15.65;;;8.65;;
28459;SDS011;32528;45.712;9.192;2023-12-20T01:01:54;16.02;;;9.15;;
28459;SDS011;32528;45.712;9.192;2023-12-20T01:05:55;14.70;;;7.88;;
28459;SDS011;32528;45.712;9.192;2023-12-20T01:07:56;28.55;;;11.65;;
28459;SDS011;32528;45.712;9.192;2023-12-20T01:09:57;23.85;;;11.48;;
28459;SDS011;32528;45.712;9.192;2023-12-20T01:11:57;14.13;;;7.57;;
28459;SDS011;32528;45.712;9.192;2023-12-20T01:15:59;15.40;;;7.88;;
28459;SDS011;32528;45.712;9.192;2023-12-20T01:17:59;19.30;;;10.35;;
28459;SDS011;32528;45.712;9.192;2023-12-20T01:20:00;17.63;;;9.40;;
28459;SDS011;32528;45.712;9.192;2023-12-20T01:22:01;17.20;;;7.93;;
28459;SDS011;32528;45.712;9.192;2023-12-20T01:24:02;14.60;;;6.57;;
28459;SDS011;32528;45.712;9.192;2023-12-20T01:30:06;13.35;;;7.20;;
28459;SDS011;32528;45.712;9.192;2023-12-20T01:32:07;16.95;;;7.75;;
28459;SDS011;32528;45.712;9.192;2023-12-20T01:34:08;15.27;;;8.68;;
28459;SDS011;32528;45.712;9.192;2023-12-20T01:54:16;13.32;;;6.05;;
28459;SDS011;32528;45.712;9.192;2023-12-20T01:56:19;14.07;;;6.95;;
28459;SDS011;32528;45.712;9.192;2023-12-20T02:06:29;15.68;;;6.20;;
28459;SDS011;32528;45.712;9.192;2023-12-20T02:08:31;14.35;;;5.30;;
28459;SDS011;32528;45.712;9.192;2023-12-20T02:10:32;12.93;;;5.85;;
28459;SDS011;32528;45.712;9.192;2023-12-20T02:12:33;15.02;;;7.40;;
28459;SDS011;32528;45.712;9.192;2023-12-20T02:14:33;12.50;;;7.28;;
28459;SDS011;32528;45.712;9.192;2023-12-20T02:16:34;15.90;;;7.28;;
28459;SDS011;32528;45.712;9.192;2023-12-20T02:18:35;14.43;;;7.05;;
28459;SDS011;32528;45.712;9.192;2023-12-20T02:20:36;11.10;;;6.45;;
28459;SDS011;32528;45.712;9.192;2023-12-20T02:22:36;12.10;;;7.20;;
28459;SDS011;32528;45.712;9.192;2023-12-20T02:24:37;22.07;;;8.00;;
28459;SDS011;32528;45.712;9.192;2023-12-20T02:26:38;13.07;;;6.78;;
28459;SDS011;32528;45.712;9.192;2023-12-20T02:28:39;15.70;;;6.47;;
28459;SDS011;32528;45.712;9.192;2023-12-20T02:30:40;9.85;;;6.13;;
28459;SDS011;32528;45.712;9.192;2023-12-20T02:32:40;13.43;;;6.00;;
28459;SDS011;32528;45.712;9.192;2023-12-20T02:34:41;15.40;;;7.38;;
28459;SDS011;32528;45.712;9.192;2023-12-20T02:36:42;22.33;;;8.52;;
28459;SDS011;32528;45.712;9.192;2023-12-20T02:38:42;12.98;;;7.00;;
28459;SDS011;32528;45.712;9.192;2023-12-20T02:40:43;17.50;;;7.40;;
28459;SDS011;32528;45.712;9.192;2023-12-20T02:46:45;12.15;;;6.75;;
28459;SDS011;32528;45.712;9.192;2023-12-20T02:48:46;16.63;;;7.88;;
28459;SDS011;32528;45.712;9.192;2023-12-20T02:50:47;13.48;;;7.57;;
28459;SDS011;32528;45.712;9.192;2023-12-20T02:52:49;12.73;;;8.07;;
28459;SDS011;32528;45.712;9.192;2023-12-20T02:54:49;14.50;;;7.88;;
28459;SDS011;32528;45.712;9.192;2023-12-20T03:04:53;14.43;;;6.60;;
28459;SDS011;32528;45.712;9.192;2023-12-20T03:06:55;19.83;;;7.00;;
28459;SDS011;32528;45.712;9.192;2023-12-20T03:08:55;14.23;;;7.97;;
28459;SDS011;32528;45.712;9.192;2023-12-20T03:10:56;14.15;;;6.90;;
28459;SDS011;32528;45.712;9.192;2023-12-20T03:12:58;10.52;;;6.38;;
28459;SDS011;32528;45.712;9.192;2023-12-20T03:14:59;10.10;;;6.38;;
28459;SDS011;32528;45.712;9.192;2023-12-20T03:19:00;9.95;;;5.70;;
28459;SDS011;32528;45.712;9.192;2023-12-20T03:21:01;15.77;;;7.07;;
28459;SDS011;32528;45.712;9.192;2023-12-20T03:23:03;11.95;;;6.78;;
28459;SDS011;32528;45.712;9.192;2023-12-20T03:25:04;14.70;;;6.85;;
28459;SDS011;32528;45.712;9.192;2023-12-20T03:27:04;13.88;;;6.43;;
28459;SDS011;32528;45.712;9.192;2023-12-20T03:29:05;10.68;;;5.88;;
28459;SDS011;32528;45.712;9.192;2023-12-20T03:31:06;13.80;;;6.72;;
28459;SDS011;32528;45.712;9.192;2023-12-20T03:33:07;12.95;;;7.30;;
28459;SDS011;32528;45.712;9.192;2023-12-20T03:35:08;13.70;;;7.68;;
28459;SDS011;32528;45.712;9.192;2023-12-20T03:37:08;12.13;;;6.78;;
28459;SDS011;32528;45.712;9.192;2023-12-20T03:39:09;14.50;;;7.13;;
28459;SDS011;32528;45.712;9.192;2023-12-20T04:07:20;9.40;;;5.20;;
28459;SDS011;32528;45.712;9.192;2023-12-20T04:09:21;11.43;;;5.00;;
28459;SDS011;32528;45.712;9.192;2023-12-20T04:11:22;10.70;;;6.10;;
28459;SDS011;32528;45.712;9.192;2023-12-20T04:13:22;9.57;;;4.82;;
28459;SDS011;32528;45.712;9.192;2023-12-20T04:15:23;11.13;;;6.07;;
28459;SDS011;32528;45.712;9.192;2023-12-20T04:17:24;11.95;;;6.55;;
28459;SDS011;32528;45.712;9.192;2023-12-20T04:19:25;11.07;;;6.38;;
28459;SDS011;32528;45.712;9.192;2023-12-20T04:21:26;10.75;;;5.95;;
28459;SDS011;32528;45.712;9.192;2023-12-20T04:23:26;17.98;;;6.03;;
28459;SDS011;32528;45.712;9.192;2023-12-20T04:25:27;12.57;;;6.05;;
28459;SDS011;32528;45.712;9.192;2023-12-20T04:27:28;11.05;;;5.53;;
28459;SDS011;32528;45.712;9.192;2023-12-20T04:29:28;12.88;;;6.15;;
28459;SDS011;32528;45.712;9.192;2023-12-20T04:31:29;12.98;;;6.35;;
28459;SDS011;32528;45.712;9.192;2023-12-20T04:33:30;10.38;;;5.45;;
28459;SDS011;32528;45.712;9.192;2023-12-20T04:35:31;16.33;;;5.97;;
28459;SDS011;32528;45.712;9.192;2023-12-20T04:37:31;9.52;;;5.10;;
28459;SDS011;32528;45.712;9.192;2023-12-20T04:39:32;11.20;;;5.38;;
28459;SDS011;32528;45.712;9.192;2023-12-20T04:41:33;12.15;;;6.97;;
28459;SDS011;32528;45.712;9.192;2023-12-20T04:43:34;14.73;;;6.90;;
28459;SDS011;32528;45.712;9.192;2023-12-20T04:45:35;11.25;;;7.30;;
28459;SDS011;32528;45.712;9.192;2023-12-20T04:47:35;11.45;;;6.32;;
28459;SDS011;32528;45.712;9.192;2023-12-20T04:49:36;24.85;;;9.73;;
28459;SDS011;32528;45.712;9.192;2023-12-20T04:51:37;10.23;;;6.22;;
28459;SDS011;32528;45.712;9.192;2023-12-20T04:53:38;18.17;;;5.75;;
28459;SDS011;32528;45.712;9.192;2023-12-20T04:55:39;9.38;;;5.63;;
28459;SDS011;32528;45.712;9.192;2023-12-20T04:57:39;13.88;;;6.50;;
28459;SDS011;32528;45.712;9.192;2023-12-20T04:59:40;12.43;;;5.78;;
28459;SDS011;32528;45.712;9.192;2023-12-20T05:01:41;9.95;;;5.80;;
28459;SDS011;32528;45.712;9.192;2023-12-20T05:03:42;8.70;;;4.78;;
28459;SDS011;32528;45.712;9.192;2023-12-20T05:05:43;13.25;;;4.70;;
28459;SDS011;32528;45.712;9.192;2023-12-20T05:07:44;8.95;;;5.25;;
28459;SDS011;32528;45.712;9.192;2023-12-20T05:09:44;11.15;;;5.63;;
28459;SDS011;32528;45.712;9.192;2023-12-20T05:11:45;13.80;;;5.45;;
28459;SDS011;32528;45.712;9.192;2023-12-20T05:13:46;13.02;;;5.35;;
28459;SDS011;32528;45.712;9.192;2023-12-20T05:15:47;10.63;;;6.18;;
28459;SDS011;32528;45.712;9.192;2023-12-20T05:17:47;9.68;;;4.53;;
28459;SDS011;32528;45.712;9.192;2023-12-20T05:19:48;12.20;;;5.43;;
28459;SDS011;32528;45.712;9.192;2023-12-20T05:21:49;14.73;;;5.70;;
28459;SDS011;32528;45.712;9.192;2023-12-20T05:23:50;11.00;;;5.75;;
28459;SDS011;32528;45.712;9.192;2023-12-20T05:25:50;10.10;;;5.70;;
28459;SDS011;32528;45.712;9.192;2023-12-20T05:27:51;10.18;;;4.65;;
28459;SDS011;32528;45.712;9.192;2023-12-20T05:29:52;11.27;;;6.55;;
28459;SDS011;32528;45.712;9.192;2023-12-20T05:31:53;11.20;;;5.75;;
28459;SDS011;32528;45.712;9.192;2023-12-20T05:33:54;13.88;;;5.22;;
28459;SDS011;32528;45.712;9.192;2023-12-20T05:35:55;13.18;;;5.35;;
28459;SDS011;32528;45.712;9.192;2023-12-20T05:37:55;19.02;;;5.65;;
28459;SDS011;32528;45.712;9.192;2023-12-20T05:39:56;10.20;;;4.85;;
28459;SDS011;32528;45.712;9.192;2023-12-20T05:41:57;19.42;;;5.32;;
28459;SDS011;32528;45.712;9.192;2023-12-20T05:43:58;14.55;;;6.43;;
28459;SDS011;32528;45.712;9.192;2023-12-20T05:45:59;7.60;;;4.38;;
28459;SDS011;32528;45.712;9.192;2023-12-20T05:48:00;21.02;;;5.50;;
28459;SDS011;32528;45.712;9.192;2023-12-20T05:50:00;15.90;;;5.55;;
28459;SDS011;32528;45.712;9.192;2023-12-20T05:54:02;10.88;;;5.35;;
28459;SDS011;32528;45.712;9.192;2023-12-20T05:56:03;13.55;;;6.18;;
28459;SDS011;32528;45.712;9.192;2023-12-20T05:58:04;15.88;;;6.22;;
28459;SDS011;32528;45.712;9.192;2023-12-20T06:00:05;12.20;;;5.57;;
28459;SDS011;32528;45.712;9.192;2023-12-20T06:02:12;11.70;;;6.57;;
28459;SDS011;32528;45.712;9.192;2023-12-20T06:04:13;18.73;;;6.10;;
28459;SDS011;32528;45.712;9.192;2023-12-20T06:08:14;8.70;;;4.97;;
28459;SDS011;32528;45.712;9.192;2023-12-20T06:10:15;10.13;;;5.35;;
28459;SDS011;32528;45.712;9.192;2023-12-20T06:12:16;13.20;;;6.03;;
28459;SDS011;32528;45.712;9.192;2023-12-20T06:14:17;14.57;;;7.47;;
28459;SDS011;32528;45.712;9.192;2023-12-20T06:16:18;18.42;;;6.18;;
28459;SDS011;32528;45.712;9.192;2023-12-20T06:18:19;13.27;;;6.78;;
28459;SDS011;32528;45.712;9.192;2023-12-20T06:20:19;14.40;;;6.25;;
28459;SDS011;32528;45.712;9.192;2023-12-20T06:22:20;9.70;;;5.78;;
28459;SDS011;32528;45.712;9.192;2023-12-20T06:24:21;14.13;;;6.40;;
28459;SDS011;32528;45.712;9.192;2023-12-20T06:26:21;8.63;;;5.30;;
28459;SDS011;32528;45.712;9.192;2023-12-20T06:28:22;9.93;;;5.38;;
28459;SDS011;32528;45.712;9.192;2023-12-20T06:30:23;11.27;;;5.30;;
28459;SDS011;32528;45.712;9.192;2023-12-20T06:32:25;20.58;;;8.40;;
28459;SDS011;32528;45.712;9.192;2023-12-20T06:34:26;16.60;;;8.02;;
28459;SDS011;32528;45.712;9.192;2023-12-20T06:36:27;28.27;;;8.82;;
28459;SDS011;32528;45.712;9.192;2023-12-20T06:38:27;33.13;;;13.35;;
28459;SDS011;32528;45.712;9.192;2023-12-20T06:40:28;33.60;;;14.20;;
28459;SDS011;32528;45.712;9.192;2023-12-20T06:46:30;29.98;;;15.75;;
28459;SDS011;32528;45.712;9.192;2023-12-20T06:50:31;49.63;;;15.38;;
28459;SDS011;32528;45.712;9.192;2023-12-20T06:54:33;39.47;;;17.25;;
28459;SDS011;32528;45.712;9.192;2023-12-20T06:56:34;68.07;;;22.98;;
28459;SDS011;32528;45.712;9.192;2023-12-20T06:58:35;59.63;;;23.25;;
28459;SDS011;32528;45.712;9.192;2023-12-20T07:00:37;46.10;;;18.77;;
28459;SDS011;32528;45.712;9.192;2023-12-20T07:02:38;36.45;;;15.68;;
28459;SDS011;32528;45.712;9.192;2023-12-20T07:04:39;45.03;;;17.48;;
28459;SDS011;32528;45.712;9.192;2023-12-20T07:06:40;59.88;;;25.92;;
28459;SDS011;32528;45.712;9.192;2023-12-20T07:08:41;53.30;;;22.27;;
28459;SDS011;32528;45.712;9.192;2023-12-20T07:10:42;49.75;;;23.30;;
28459;SDS011;32528;45.712;9.192;2023-12-20T07:12:43;51.92;;;26.85;;
28459;SDS011;32528;45.712;9.192;2023-12-20T07:14:44;57.95;;;33.58;;
28459;SDS011;32528;45.712;9.192;2023-12-20T07:16:45;68.30;;;38.90;;
28459;SDS011;32528;45.712;9.192;2023-12-20T07:18:46;117.13;;;63.78;;
28459;SDS011;32528;45.712;9.192;2023-12-20T07:20:47;75.60;;;47.45;;
28459;SDS011;32528;45.712;9.192;2023-12-20T07:22:48;65.70;;;38.42;;
28459;SDS011;32528;45.712;9.192;2023-12-20T07:24:48;40.17;;;23.40;;
28459;SDS011;32528;45.712;9.192;2023-12-20T07:26:49;32.15;;;18.60;;
28459;SDS011;32528;45.712;9.192;2023-12-20T07:28:51;24.70;;;14.75;;
28459;SDS011;32528;45.712;9.192;2023-12-20T07:30:51;57.08;;;28.17;;
28459;SDS011;32528;45.712;9.192;2023-12-20T07:32:52;64.65;;;33.13;;
28459;SDS011;32528;45.712;9.192;2023-12-20T07:34:53;50.17;;;29.10;;
28459;SDS011;32528;45.712;9.192;2023-12-20T07:36:54;31.90;;;19.48;;
28459;SDS011;32528;45.712;9.192;2023-12-20T07:38:55;47.20;;;20.73;;
28459;SDS011;32528;45.712;9.192;2023-12-20T07:40:56;261.17;;;115.70;;
28459;SDS011;32528;45.712;9.192;2023-12-20T07:42:56;432.48;;;166.73;;
28459;SDS011;32528;45.712;9.192;2023-12-20T07:44:58;191.82;;;78.90;;
28459;SDS011;32528;45.712;9.192;2023-12-20T07:46:59;71.43;;;40.00;;
28459;SDS011;32528;45.712;9.192;2023-12-20T07:49:01;117.47;;;50.65;;
28459;SDS011;32528;45.712;9.192;2023-12-20T07:51:02;138.85;;;52.75;;
28459;SDS011;32528;45.712;9.192;2023-12-20T07:55:04;121.82;;;49.10;;
28459;SDS011;32528;45.712;9.192;2023-12-20T07:57:05;49.35;;;25.13;;
28459;SDS011;32528;45.712;9.192;2023-12-20T07:59:06;71.55;;;37.95;;
28459;SDS011;32528;45.712;9.192;2023-12-20T08:01:07;80.75;;;43.25;;
28459;SDS011;32528;45.712;9.192;2023-12-20T08:03:07;66.07;;;45.63;;
28459;SDS011;32528;45.712;9.192;2023-12-20T08:05:08;60.20;;;37.88;;
28459;SDS011;32528;45.712;9.192;2023-12-20T08:07:09;56.42;;;33.97;;
28459;SDS011;32528;45.712;9.192;2023-12-20T08:09:10;46.58;;;29.95;;
28459;SDS011;32528;45.712;9.192;2023-12-20T08:11:10;61.83;;;31.35;;
28459;SDS011;32528;45.712;9.192;2023-12-20T08:13:11;66.82;;;40.80;;
28459;SDS011;32528;45.712;9.192;2023-12-20T08:15:12;85.93;;;51.17;;
28459;SDS011;32528;45.712;9.192;2023-12-20T08:17:13;339.27;;;176.20;;
28459;SDS011;32528;45.712;9.192;2023-12-20T08:19:16;148.73;;;87.47;;
28459;SDS011;32528;45.712;9.192;2023-12-20T08:21:17;92.95;;;53.78;;
28459;SDS011;32528;45.712;9.192;2023-12-20T08:23:20;108.45;;;61.95;;
28459;SDS011;32528;45.712;9.192;2023-12-20T08:25:23;76.68;;;44.45;;
28459;SDS011;32528;45.712;9.192;2023-12-20T08:27:24;111.63;;;60.63;;
28459;SDS011;32528;45.712;9.192;2023-12-20T08:29:26;73.78;;;40.00;;
28459;SDS011;32528;45.712;9.192;2023-12-20T08:31:26;36.95;;;22.80;;
28459;SDS011;32528;45.712;9.192;2023-12-20T08:33:27;30.92;;;19.67;;
28459;SDS011;32528;45.712;9.192;2023-12-20T08:35:28;40.50;;;23.25;;
28459;SDS011;32528;45.712;9.192;2023-12-20T08:37:29;40.30;;;20.63;;
28459;SDS011;32528;45.712;9.192;2023-12-20T08:39:30;38.08;;;22.88;;
28459;SDS011;32528;45.712;9.192;2023-12-20T08:41:31;39.72;;;20.20;;
28459;SDS011;32528;45.712;9.192;2023-12-20T08:43:31;34.55;;;20.10;;
28459;SDS011;32528;45.712;9.192;2023-12-20T08:45:33;35.80;;;21.77;;
28459;SDS011;32528;45.712;9.192;2023-12-20T08:47:34;30.65;;;18.63;;
28459;SDS011;32528;45.712;9.192;2023-12-20T08:49:35;39.95;;;19.50;;
28459;SDS011;32528;45.712;9.192;2023-12-20T08:51:36;38.40;;;17.83;;
28459;SDS011;32528;45.712;9.192;2023-12-20T08:53:40;24.10;;;16.17;;
28459;SDS011;32528;45.712;9.192;2023-12-20T08:55:41;40.50;;;19.17;;
28459;SDS011;32528;45.712;9.192;2023-12-20T08:57:42;35.92;;;19.38;;
28459;SDS011;32528;45.712;9.192;2023-12-20T08:59:43;29.60;;;17.75;;
28459;SDS011;32528;45.712;9.192;2023-12-20T09:01:44;44.75;;;15.13;;
28459;SDS011;32528;45.712;9.192;2023-12-20T09:03:44;23.38;;;13.57;;
28459;SDS011;32528;45.712;9.192;2023-12-20T09:05:45;35.65;;;18.90;;
28459;SDS011;32528;45.712;9.192;2023-12-20T09:07:46;45.40;;;21.75;;
28459;SDS011;32528;45.712;9.192;2023-12-20T09:09:47;20.63;;;12.40;;
28459;SDS011;32528;45.712;9.192;2023-12-20T09:11:47;28.42;;;14.77;;
28459;SDS011;32528;45.712;9.192;2023-12-20T09:13:50;27.08;;;15.50;;
28459;SDS011;32528;45.712;9.192;2023-12-20T09:15:51;23.80;;;13.57;;
28459;SDS011;32528;45.712;9.192;2023-12-20T09:17:51;24.20;;;13.20;;
28459;SDS011;32528;45.712;9.192;2023-12-20T09:19:52;28.08;;;12.23;;
28459;SDS011;32528;45.712;9.192;2023-12-20T09:21:54;23.77;;;15.15;;
28459;SDS011;32528;45.712;9.192;2023-12-20T09:23:54;39.78;;;18.00;;
28459;SDS011;32528;45.712;9.192;2023-12-20T09:25:55;23.70;;;13.90;;
28459;SDS011;32528;45.712;9.192;2023-12-20T09:27:56;31.75;;;16.60;;
28459;SDS011;32528;45.712;9.192;2023-12-20T09:29:57;35.03;;;18.90;;
28459;SDS011;32528;45.712;9.192;2023-12-20T09:31:57;34.30;;;17.80;;
28459;SDS011;32528;45.712;9.192;2023-12-20T09:33:58;56.08;;;19.73;;
28459;SDS011;32528;45.712;9.192;2023-12-20T09:35:59;25.42;;;13.98;;
28459;SDS011;32528;45.712;9.192;2023-12-20T09:38:00;23.67;;;13.93;;
28459;SDS011;32528;45.712;9.192;2023-12-20T09:40:01;31.73;;;14.02;;
28459;SDS011;32528;45.712;9.192;2023-12-20T09:42:03;23.45;;;12.18;;
28459;SDS011;32528;45.712;9.192;2023-12-20T09:44:05;34.42;;;13.60;;
28459;SDS011;32528;45.712;9.192;2023-12-20T09:46:08;26.38;;;11.77;;
28459;SDS011;32528;45.712;9.192;2023-12-20T09:48:16;23.05;;;12.70;;
28459;SDS011;32528;45.712;9.192;2023-12-20T09:50:19;39.55;;;23.45;;
28459;SDS011;32528;45.712;9.192;2023-12-20T09:52:21;36.28;;;19.48;;
28459;SDS011;32528;45.712;9.192;2023-12-20T09:54:24;30.40;;;12.50;;
28459;SDS011;32528;45.712;9.192;2023-12-20T09:56:26;23.58;;;12.93;;
28459;SDS011;32528;45.712;9.192;2023-12-20T09:58:26;30.65;;;14.40;;
28459;SDS011;32528;45.712;9.192;2023-12-20T10:00:27;28.92;;;14.35;;
28459;SDS011;32528;45.712;9.192;2023-12-20T10:02:28;38.42;;;15.20;;
28459;SDS011;32528;45.712;9.192;2023-12-20T10:04:32;38.15;;;21.27;;
28459;SDS011;32528;45.712;9.192;2023-12-20T10:06:33;38.60;;;20.27;;
28459;SDS011;32528;45.712;9.192;2023-12-20T10:08:33;27.92;;;16.27;;
28459;SDS011;32528;45.712;9.192;2023-12-20T10:10:34;28.02;;;16.90;;
28459;SDS011;32528;45.712;9.192;2023-12-20T10:12:35;29.25;;;16.65;;
28459;SDS011;32528;45.712;9.192;2023-12-20T10:14:36;36.17;;;18.80;;
28459;SDS011;32528;45.712;9.192;2023-12-20T10:16:38;42.92;;;21.17;;
28459;SDS011;32528;45.712;9.192;2023-12-20T10:18:39;57.83;;;25.73;;
28459;SDS011;32528;45.712;9.192;2023-12-20T10:20:40;35.97;;;20.13;;
28459;SDS011;32528;45.712;9.192;2023-12-20T10:22:42;37.70;;;19.25;;
28459;SDS011;32528;45.712;9.192;2023-12-20T10:24:43;35.35;;;16.92;;
28459;SDS011;32528;45.712;9.192;2023-12-20T10:26:47;36.08;;;17.30;;
28459;SDS011;32528;45.712;9.192;2023-12-20T10:28:54;32.08;;;17.13;;
28459;SDS011;32528;45.712;9.192;2023-12-20T10:30:55;32.03;;;15.65;;
28459;SDS011;32528;45.712;9.192;2023-12-20T10:32:56;31.98;;;15.82;;
28459;SDS011;32528;45.712;9.192;2023-12-20T10:34:57;35.03;;;17.35;;
28459;SDS011;32528;45.712;9.192;2023-12-20T10:36:59;46.95;;;16.60;;
28459;SDS011;32528;45.712;9.192;2023-12-20T10:39:00;29.33;;;16.13;;
28459;SDS011;32528;45.712;9.192;2023-12-20T10:41:03;38.05;;;18.35;;
28459;SDS011;32528;45.712;9.192;2023-12-20T10:43:05;33.53;;;17.92;;
28459;SDS011;32528;45.712;9.192;2023-12-20T10:45:08;36.85;;;18.48;;
28459;SDS011;32528;45.712;9.192;2023-12-20T10:47:09;37.58;;;18.27;;
28459;SDS011;32528;45.712;9.192;2023-12-20T10:49:13;37.97;;;18.08;;
28459;SDS011;32528;45.712;9.192;2023-12-20T10:51:17;35.45;;;18.48;;
28459;SDS011;32528;45.712;9.192;2023-12-20T10:53:19;37.15;;;15.82;;
28459;SDS011;32528;45.712;9.192;2023-12-20T10:55:21;26.98;;;15.10;;
28459;SDS011;32528;45.712;9.192;2023-12-20T10:57:23;32.50;;;17.95;;
28459;SDS011;32528;45.712;9.192;2023-12-20T10:59:28;35.60;;;18.63;;
28459;SDS011;32528;45.712;9.192;2023-12-20T11:01:29;44.28;;;19.88;;
28459;SDS011;32528;45.712;9.192;2023-12-20T11:03:32;43.53;;;17.80;;
28459;SDS011;32528;45.712;9.192;2023-12-20T11:08:03;42.15;;;19.35;;
28459;SDS011;32528;45.712;9.192;2023-12-20T11:10:21;37.45;;;16.83;;
28459;SDS011;32528;45.712;9.192;2023-12-20T11:12:41;52.33;;;20.17;;
28459;SDS011;32528;45.712;9.192;2023-12-20T11:14:54;38.78;;;18.33;;
28459;SDS011;32528;45.712;9.192;2023-12-20T11:17:07;33.92;;;14.27;;
28459;SDS011;32528;45.712;9.192;2023-12-20T11:19:09;34.75;;;15.10;;
28459;SDS011;32528;45.712;9.192;2023-12-20T11:21:13;33.20;;;16.05;;
28459;SDS011;32528;45.712;9.192;2023-12-20T11:23:16;33.92;;;14.73;;
28459;SDS011;32528;45.712;9.192;2023-12-20T11:25:16;34.38;;;13.75;;
28459;SDS011;32528;45.712;9.192;2023-12-20T11:27:18;36.20;;;14.25;;
28459;SDS011;32528;45.712;9.192;2023-12-20T11:31:29;27.70;;;12.82;;
28459;SDS011;32528;45.712;9.192;2023-12-20T11:33:40;31.50;;;15.68;;
28459;SDS011;32528;45.712;9.192;2023-12-20T11:35:42;27.23;;;15.00;;
28459;SDS011;32528;45.712;9.192;2023-12-20T11:37:45;33.70;;;15.18;;
28459;SDS011;32528;45.712;9.192;2023-12-20T11:39:55;26.60;;;14.00;;
28459;SDS011;32528;45.712;9.192;2023-12-20T11:42:03;24.15;;;14.15;;
28459;SDS011;32528;45.712;9.192;2023-12-20T11:44:06;31.73;;;14.88;;
28459;SDS011;32528;45.712;9.192;2023-12-20T11:46:09;28.02;;;13.95;;
28459;SDS011;32528;45.712;9.192;2023-12-20T11:48:10;32.22;;;15.30;;
28459;SDS011;32528;45.712;9.192;2023-12-20T11:50:11;30.20;;;14.07;;
28459;SDS011;32528;45.712;9.192;2023-12-20T11:52:12;35.97;;;15.27;;
28459;SDS011;32528;45.712;9.192;2023-12-20T11:54:13;24.92;;;13.98;;
28459;SDS011;32528;45.712;9.192;2023-12-20T11:56:15;31.92;;;14.73;;
28459;SDS011;32528;45.712;9.192;2023-12-20T11:58:16;27.90;;;13.45;;
28459;SDS011;32528;45.712;9.192;2023-12-20T12:00:17;28.08;;;14.73;;
28459;SDS011;32528;45.712;9.192;2023-12-20T12:02:18;28.88;;;15.18;;
28459;SDS011;32528;45.712;9.192;2023-12-20T12:04:19;35.53;;;15.95;;
28459;SDS011;32528;45.712;9.192;2023-12-20T12:06:20;26.35;;;14.77;;
28459;SDS011;32528;45.712;9.192;2023-12-20T12:08:20;31.25;;;15.73;;
28459;SDS011;32528;45.712;9.192;2023-12-20T12:10:21;27.73;;;17.08;;
28459;SDS011;32528;45.712;9.192;2023-12-20T12:12:22;32.92;;;16.08;;
28459;SDS011;32528;45.712;9.192;2023-12-20T12:14:25;27.80;;;16.90;;
28459;SDS011;32528;45.712;9.192;2023-12-20T12:16:26;32.35;;;17.23;;
28459;SDS011;32528;45.712;9.192;2023-12-20T12:18:27;33.10;;;17.60;;
28459;SDS011;32528;45.712;9.192;2023-12-20T12:20:28;36.47;;;17.90;;
28459;SDS011;32528;45.712;9.192;2023-12-20T12:22:29;37.42;;;17.42;;
28459;SDS011;32528;45.712;9.192;2023-12-20T12:24:30;35.60;;;19.08;;
28459;SDS011;32528;45.712;9.192;2023-12-20T12:26:31;35.67;;;17.95;;
28459;SDS011;32528;45.712;9.192;2023-12-20T12:28:31;37.45;;;19.35;;
28459;SDS011;32528;45.712;9.192;2023-12-20T12:30:34;32.90;;;18.42;;
28459;SDS011;32528;45.712;9.192;2023-12-20T12:32:36;35.60;;;19.25;;
28459;SDS011;32528;45.712;9.192;2023-12-20T12:34:37;41.15;;;19.88;;
28459;SDS011;32528;45.712;9.192;2023-12-20T12:36:37;37.13;;;18.60;;
28459;SDS011;32528;45.712;9.192;2023-12-20T12:38:39;40.65;;;19.42;;
28459;SDS011;32528;45.712;9.192;2023-12-20T12:40:43;31.95;;;18.00;;
28459;SDS011;32528;45.712;9.192;2023-12-20T12:42:44;37.83;;;18.27;;
28459;SDS011;32528;45.712;9.192;2023-12-20T12:44:45;34.03;;;19.67;;
28459;SDS011;32528;45.712;9.192;2023-12-20T12:46:46;32.97;;;19.05;;
28459;SDS011;32528;45.712;9.192;2023-12-20T12:48:49;33.67;;;21.65;;
28459;SDS011;32528;45.712;9.192;2023-12-20T12:50:50;55.83;;;21.95;;
28459;SDS011;32528;45.712;9.192;2023-12-20T12:52:53;50.03;;;22.00;;
28459;SDS011;32528;45.712;9.192;2023-12-20T12:54:54;36.40;;;19.45;;
28459;SDS011;32528;45.712;9.192;2023-12-20T12:56:54;40.10;;;21.20;;
28459;SDS011;32528;45.712;9.192;2023-12-20T12:58:55;51.50;;;20.95;;
28459;SDS011;32528;45.712;9.192;2023-12-20T13:00:56;40.33;;;22.45;;
28459;SDS011;32528;45.712;9.192;2023-12-20T13:02:57;38.45;;;21.75;;
28459;SDS011;32528;45.712;9.192;2023-12-20T13:04:58;37.90;;;22.10;;
28459;SDS011;32528;45.712;9.192;2023-12-20T13:06:59;39.92;;;25.00;;
28459;SDS011;32528;45.712;9.192;2023-12-20T13:09:00;42.50;;;24.00;;
28459;SDS011;32528;45.712;9.192;2023-12-20T13:11:00;47.50;;;24.30;;
28459;SDS011;32528;45.712;9.192;2023-12-20T13:13:05;44.67;;;24.65;;
28459;SDS011;32528;45.712;9.192;2023-12-20T13:15:06;44.58;;;24.58;;
28459;SDS011;32528;45.712;9.192;2023-12-20T13:17:07;45.13;;;23.17;;
28459;SDS011;32528;45.712;9.192;2023-12-20T13:19:08;44.88;;;25.35;;
28459;SDS011;32528;45.712;9.192;2023-12-20T13:21:09;36.92;;;23.45;;
28459;SDS011;32528;45.712;9.192;2023-12-20T13:23:10;37.78;;;24.10;;
28459;SDS011;32528;45.712;9.192;2023-12-20T13:25:11;51.35;;;26.80;;
28459;SDS011;32528;45.712;9.192;2023-12-20T13:27:12;45.80;;;25.00;;
28459;SDS011;32528;45.712;9.192;2023-12-20T13:29:13;45.58;;;26.17;;
28459;SDS011;32528;45.712;9.192;2023-12-20T13:31:13;44.30;;;28.58;;